Time;durP1;ratioP1;P1;durP2;ratioP2;P2;SDS_P1;SDS_P2;PMS_P1;PMS_P2;Temp;Humidity;BMP_temperature;BMP_pressure;BME280_temperature;BME280_humidity;BME280_pressure;Samples;Min_cycle;Max_cycle;Signal;HPM_P1;HPM_P2
2022/06/03 00:00:45;;;;;;;1.50;1.40;;;10.10;99.90;;;;;;4935430;29;20432;-84
2022/06/03 00:03:42;;;;;;;2.30;2.00;;;10.10;99.90;;;;;;4939240;29;20104;-83
2022/06/03 00:06:38;;;;;;;2.80;2.25;;;10.00;99.90;;;;;;4968956;28;20098;-83
2022/06/03 00:09:42;;;;;;;2.40;1.60;;;10.00;99.90;;;;;;4942553;29;20528;-83
2022/06/03 00:12:12;;;;;;;1.98;1.75;;;10.00;99.90;;;;;;4949435;28;20035;-83
2022/06/03 00:15:12;;;;;;;1.73;1.63;;;9.90;99.90;;;;;;4946647;29;20024;-83
2022/06/03 00:18:17;;;;;;;2.00;1.65;;;9.90;99.90;;;;;;4924582;29;20118;-83
2022/06/03 00:21:19;;;;;;;3.03;1.70;;;9.90;99.90;;;;;;4947147;28;20364;-83
2022/06/03 00:24:02;;;;;;;2.22;1.52;;;9.90;99.90;;;;;;4958815;28;20487;-83
2022/06/03 00:27:06;;;;;;;2.15;1.55;;;9.80;99.90;;;;;;4954115;28;20077;-83
2022/06/03 00:30:13;;;;;;;2.85;1.85;;;9.80;99.90;;;;;;4940279;29;20374;-82
2022/06/03 00:32:58;;;;;;;1.83;1.73;;;9.80;99.90;;;;;;4942359;28;20384;-83
2022/06/03 00:35:48;;;;;;;1.50;1.40;;;9.70;99.90;;;;;;4971582;28;20058;-82
2022/06/03 00:38:51;;;;;;;1.63;1.45;;;9.70;99.90;;;;;;4974592;28;20035;-82
2022/06/03 00:41:50;;;;;;;1.70;1.60;;;9.70;99.90;;;;;;4943318;29;20039;-82
2022/06/03 00:44:36;;;;;;;1.75;1.65;;;9.60;99.90;;;;;;4970901;28;20558;-82
2022/06/03 00:47:43;;;;;;;1.58;1.48;;;9.60;99.90;;;;;;4955815;29;20053;-82
2022/06/03 00:50:17;;;;;;;;;;;9.60;99.90;;;;;;4955616;29;20047;-82
2022/06/03 00:53:08;;;;;;;2.28;1.60;;;9.60;99.90;;;;;;4940377;29;20001;-82
2022/06/03 00:56:03;;;;;;;3.13;1.92;;;9.60;99.90;;;;;;4963087;28;20035;-82
2022/06/03 00:59:06;;;;;;;1.65;1.55;;;9.60;99.90;;;;;;4967744;28;20493;-82
2022/06/03 01:01:57;;;;;;;2.72;2.00;;;9.60;99.90;;;;;;4950697;29;20034;-82
2022/06/03 01:04:34;;;;;;;2.47;1.80;;;9.50;99.90;;;;;;4956207;29;20023;-82
2022/06/03 01:07:34;;;;;;;2.30;1.65;;;9.50;99.90;;;;;;4956999;29;20375;-83
2022/06/03 01:10:45;;;;;;;1.55;1.45;;;9.50;99.90;;;;;;4951023;29;20023;-82
2022/06/03 01:13:17;;;;;;;1.52;1.42;;;9.50;99.90;;;;;;4918007;29;20140;-82
2022/06/03 01:16:07;;;;;;;1.60;1.50;;;9.50;99.90;;;;;;4936881;29;20506;-82
2022/06/03 01:19:06;;;;;;;1.80;1.70;;;9.50;99.90;;;;;;4953892;28;20028;-82
2022/06/03 01:21:54;;;;;;;1.70;1.60;;;9.40;99.90;;;;;;4958904;28;20479;-82
2022/06/03 01:24:59;;;;;;;1.98;1.55;;;9.40;99.90;;;;;;4958552;28;20055;-82
2022/06/03 01:27:50;;;;;;;1.90;1.80;;;9.40;99.90;;;;;;4947769;28;20032;-83
2022/06/03 01:30:21;;;;;;;2.20;2.03;;;9.40;99.90;;;;;;4937307;29;20043;-82
2022/06/03 01:36:42;;;;;;;1.70;1.60;;;9.30;99.90;;;;;;4937310;29;20035;-82
2022/06/03 01:39:45;;;;;;;3.15;1.80;;;9.30;99.90;;;;;;4948151;29;20360;-83
2022/06/03 01:42:32;;;;;;;1.58;1.48;;;9.30;99.90;;;;;;4955936;29;20468;-83
2022/06/03 01:45:08;;;;;;;2.35;1.85;;;9.30;99.90;;;;;;4938545;29;20038;-82
2022/06/03 01:47:57;;;;;;;2.28;1.75;;;9.30;99.90;;;;;;4946569;28;20034;-82
2022/06/03 01:53:29;;;;;;;1.98;1.77;;;9.20;99.90;;;;;;4949671;29;20035;-83
2022/06/03 01:56:23;;;;;;;1.92;1.73;;;9.20;99.90;;;;;;4943397;29;20031;-82
2022/06/03 01:59:14;;;;;;;2.30;1.92;;;9.20;99.90;;;;;;4954210;29;20479;-82
2022/06/03 02:02:07;;;;;;;1.98;1.73;;;9.20;99.90;;;;;;4958768;28;20038;-83
2022/06/03 02:05:24;;;;;;;2.13;1.90;;;9.20;99.90;;;;;;4942680;28;20070;-82
2022/06/03 02:11:28;;;;;;;4.68;2.35;;;9.10;99.90;;;;;;4941479;29;20105;-82
2022/06/03 02:17:19;;;;;;;8.48;3.30;;;9.00;99.90;;;;;;4956498;28;20566;-83
2022/06/03 02:20:22;;;;;;;3.88;2.15;;;9.00;99.90;;;;;;4959618;28;20505;-83
2022/06/03 02:26:51;;;;;;;4.25;2.17;;;9.00;99.90;;;;;;4946111;29;20394;-82
2022/06/03 02:32:50;;;;;;;3.60;2.20;;;9.00;99.90;;;;;;4946214;29;20034;-82
2022/06/03 02:35:49;;;;;;;3.67;2.65;;;9.00;99.90;;;;;;4936253;29;20188;-82
2022/06/03 02:38:22;;;;;;;4.95;3.08;;;9.00;99.90;;;;;;4939302;29;20019;-83
2022/06/03 02:41:12;;;;;;;6.57;2.65;;;9.00;99.90;;;;;;4957670;28;20027;-82
2022/06/03 02:44:19;;;;;;;4.60;2.70;;;9.00;99.90;;;;;;4966352;28;20089;-82
2022/06/03 02:47:25;;;;;;;5.30;2.70;;;9.00;99.90;;;;;;4963749;28;20062;-82
2022/06/03 02:50:27;;;;;;;7.35;3.50;;;9.00;99.90;;;;;;4937261;29;20062;-82
2022/06/03 02:53:12;;;;;;;7.60;3.85;;;8.90;99.90;;;;;;4939448;29;20032;-82
2022/06/03 02:56:29;;;;;;;5.50;2.72;;;8.90;99.90;;;;;;4935623;29;20032;-82
2022/06/03 02:59:41;;;;;;;5.40;3.10;;;8.90;99.90;;;;;;4954822;29;20027;-82
2022/06/03 03:02:40;;;;;;;5.57;3.35;;;8.80;99.90;;;;;;4958834;28;20059;-82
2022/06/03 03:05:24;;;;;;;5.45;3.50;;;8.80;99.90;;;;;;4903947;29;20467;-82
2022/06/03 03:08:36;;;;;;;7.35;3.72;;;8.80;99.90;;;;;;4936943;29;20031;-82
2022/06/03 03:11:51;;;;;;;4.90;2.97;;;8.70;99.90;;;;;;4936997;29;20019;-83
2022/06/03 03:14:19;;;;;;;5.25;3.03;;;8.70;99.90;;;;;;4950315;28;20582;-82
2022/06/03 03:17:04;;;;;;;4.70;3.03;;;8.80;99.90;;;;;;4935894;29;20037;-82
2022/06/03 03:19:45;;;;;;;6.78;3.25;;;8.80;99.90;;;;;;4947321;29;20030;-82
2022/06/03 03:22:47;;;;;;;8.63;3.15;;;8.80;99.90;;;;;;4931817;29;20103;-83
2022/06/03 03:25:35;;;;;;;3.97;2.90;;;8.80;99.90;;;;;;4952786;29;20030;-82
2022/06/03 03:28:23;;;;;;;5.50;2.88;;;8.80;99.90;;;;;;4937497;29;20110;-83
2022/06/03 03:31:22;;;;;;;5.68;3.55;;;8.80;99.90;;;;;;4963646;28;20047;-82
2022/06/03 03:34:28;;;;;;;6.97;3.53;;;8.80;99.90;;;;;;4954458;29;20063;-82
2022/06/03 03:37:19;;;;;;;5.88;3.63;;;8.70;99.90;;;;;;4954174;29;20118;-82
2022/06/03 03:40:03;;;;;;;8.15;3.67;;;8.70;99.90;;;;;;4939845;29;20499;-82
2022/06/03 03:43:12;;;;;;;9.07;4.15;;;8.70;99.90;;;;;;4949965;29;20031;-82
2022/06/03 03:46:06;;;;;;;10.45;4.00;;;8.80;99.90;;;;;;4935294;29;20384;-82
2022/06/03 03:49:08;;;;;;;8.85;3.70;;;8.70;99.90;;;;;;4939632;29;20038;-82
2022/06/03 03:51:45;;;;;;;6.30;3.35;;;8.80;99.90;;;;;;4937440;29;20122;-82
2022/06/03 03:54:41;;;;;;;10.85;4.22;;;8.80;99.90;;;;;;4923628;29;20028;-82
2022/06/03 03:57:27;;;;;;;;;;;8.80;99.90;;;;;;4953833;28;20379;-82
2022/06/03 04:00:06;;;;;;;8.07;4.47;;;8.80;99.90;;;;;;4938165;29;20355;-82
2022/06/03 04:03:05;;;;;;;8.93;4.00;;;8.80;99.90;;;;;;4939092;29;20035;-82
2022/06/03 04:05:56;;;;;;;8.00;4.28;;;8.80;99.90;;;;;;4921945;29;20439;-82
2022/06/03 04:08:47;;;;;;;6.43;3.58;;;8.90;99.90;;;;;;4939029;29;20024;-82
2022/06/03 04:11:38;;;;;;;11.20;4.72;;;8.90;99.90;;;;;;4940694;29;20146;-82
2022/06/03 04:14:22;;;;;;;5.72;3.55;;;8.90;99.90;;;;;;4944620;29;20035;-82
2022/06/03 04:17:06;;;;;;;5.43;3.58;;;9.00;99.90;;;;;;4941156;29;20031;-81
2022/06/03 04:20:09;;;;;;;6.45;3.20;;;9.10;99.90;;;;;;4957363;29;20090;-82
2022/06/03 04:23:03;;;;;;;7.70;3.72;;;9.20;99.90;;;;;;4934018;29;20031;-82
2022/06/03 04:26:09;;;;;;;5.65;3.53;;;9.20;99.90;;;;;;4949373;28;20076;-82
2022/06/03 04:29:07;;;;;;;5.27;3.50;;;9.30;99.90;;;;;;4926376;29;20039;-82
2022/06/03 04:32:09;;;;;;;5.20;3.13;;;9.40;99.90;;;;;;4952500;29;20493;-82
2022/06/03 04:35:14;;;;;;;4.57;2.88;;;9.40;99.90;;;;;;4964350;28;20033;-82
2022/06/03 04:38:25;;;;;;;6.22;3.05;;;9.50;99.90;;;;;;4918600;28;20506;-82
2022/06/03 04:41:32;;;;;;;5.30;2.97;;;9.60;99.90;;;;;;4950000;28;20023;-82
2022/06/03 04:44:57;;;;;;;6.43;3.55;;;9.70;99.90;;;;;;4955971;28;20475;-82
2022/06/03 04:47:51;;;;;;;10.23;3.42;;;9.70;99.90;;;;;;4946228;29;20059;-83
2022/06/03 04:50:55;;;;;;;4.88;3.50;;;9.80;99.90;;;;;;4959097;28;20399;-82
2022/06/03 04:54:06;;;;;;;7.47;3.30;;;10.00;99.90;;;;;;4945337;29;20471;-82
2022/06/03 04:56:58;;;;;;;6.10;3.20;;;10.10;99.90;;;;;;4937668;28;20555;-82
2022/06/03 04:59:45;;;;;;;3.33;2.70;;;10.10;99.90;;;;;;4952965;29;20034;-82
2022/06/03 05:02:48;;;;;;;6.75;3.00;;;10.20;99.90;;;;;;4956185;28;20039;-82
2022/06/03 05:05:17;;;;;;;6.40;3.17;;;10.30;99.90;;;;;;4975660;28;20082;-82
2022/06/03 05:08:21;;;;;;;3.55;2.70;;;10.40;99.90;;;;;;4930125;29;20071;-82
2022/06/03 05:11:24;;;;;;;6.72;3.65;;;10.50;99.90;;;;;;4920730;29;20476;-83
2022/06/03 05:14:26;;;;;;;4.00;2.88;;;10.60;99.90;;;;;;4950969;28;20072;-82
2022/06/03 05:17:29;;;;;;;4.32;2.92;;;10.70;99.90;;;;;;4968554;28;20055;-82
2022/06/03 05:20:11;;;;;;;9.77;3.80;;;10.90;99.90;;;;;;4948141;29;20038;-82
2022/06/03 05:22:42;;;;;;;7.63;4.03;;;11.00;99.90;;;;;;4920559;29;20031;-82
2022/06/03 05:25:41;;;;;;;9.77;4.05;;;11.10;99.90;;;;;;4946534;28;20041;-82
2022/06/03 05:28:18;;;;;;;9.75;4.40;;;11.20;99.90;;;;;;4925906;28;20035;-82
2022/06/03 05:31:36;;;;;;;6.47;3.58;;;11.30;99.90;;;;;;4944099;29;20387;-82
2022/06/03 05:34:18;;;;;;;6.60;4.25;;;11.50;99.90;;;;;;4956692;29;20023;-83
2022/06/03 05:37:27;;;;;;;14.82;4.25;;;11.60;99.90;;;;;;4956649;29;20031;-82
2022/06/03 05:40:48;;;;;;;8.70;3.72;;;11.70;99.90;;;;;;4956613;29;20387;-82
2022/06/03 05:43:42;;;;;;;10.00;4.20;;;11.80;99.90;;;;;;4954643;29;20102;-82
2022/06/03 05:46:08;;;;;;;12.48;5.13;;;12.00;99.90;;;;;;4954155;29;20119;-83
2022/06/03 05:49:15;;;;;;;10.43;5.60;;;12.10;99.90;;;;;;4970961;28;20520;-83
2022/06/03 05:52:33;;;;;;;9.40;5.70;;;12.20;99.90;;;;;;4956347;29;20475;-83
2022/06/03 05:55:27;;;;;;;7.35;4.53;;;12.30;99.90;;;;;;4955674;29;20027;-82
2022/06/03 05:58:11;;;;;;;7.13;4.35;;;12.30;99.90;;;;;;4937278;29;20043;-83
2022/06/03 06:01:14;;;;;;;10.10;5.20;;;12.40;99.90;;;;;;4936993;29;20101;-82
2022/06/03 06:04:05;;;;;;;8.20;4.32;;;12.40;99.90;;;;;;4950984;28;20035;-82
2022/06/03 06:07:01;;;;;;;11.00;5.25;;;12.50;99.90;;;;;;4946121;28;20024;-82
2022/06/03 06:09:34;;;;;;;7.78;4.57;;;12.60;99.90;;;;;;4901726;29;20033;-83
2022/06/03 06:12:05;;;;;;;10.60;5.45;;;12.70;99.90;;;;;;4952342;29;20051;-83
2022/06/03 06:15:07;;;;;;;12.05;5.68;;;12.70;99.90;;;;;;4955531;29;20539;-83
2022/06/03 06:17:32;;;;;;;17.65;4.82;;;12.80;99.90;;;;;;4956071;29;20028;-83
2022/06/03 06:20:35;;;;;;;11.13;5.57;;;12.90;99.90;;;;;;4934346;29;20019;-83
2022/06/03 06:23:10;;;;;;;12.13;5.40;;;13.00;99.90;;;;;;4952635;28;20455;-82
2022/06/03 06:25:43;;;;;;;10.10;6.18;;;13.00;99.90;;;;;;4953060;28;20159;-84
2022/06/03 06:28:49;;;;;;;6.68;5.55;;;13.10;99.90;;;;;;4938296;29;20479;-83
2022/06/03 06:31:46;;;;;;;10.57;6.00;;;13.10;99.90;;;;;;4953442;28;20385;-83
2022/06/03 06:34:17;;;;;;;10.35;5.63;;;13.20;99.90;;;;;;4950872;28;20031;-82
2022/06/03 06:40:28;;;;;;;8.90;5.03;;;13.30;99.90;;;;;;4936695;29;20078;-82
2022/06/03 06:43:28;;;;;;;9.95;5.88;;;13.40;99.90;;;;;;4936115;29;20485;-82
2022/06/03 06:46:03;;;;;;;11.25;6.20;;;13.40;99.90;;;;;;4938521;29;20035;-82
2022/06/03 06:49:04;;;;;;;10.55;5.80;;;13.50;99.90;;;;;;4959851;28;20159;-82
2022/06/03 06:51:54;;;;;;;12.32;6.10;;;13.60;99.90;;;;;;4955313;29;20549;-82
2022/06/03 06:54:29;;;;;;;18.10;5.65;;;13.70;99.90;;;;;;4954741;29;20027;-82
2022/06/03 06:57:14;;;;;;;14.00;6.68;;;13.60;99.90;;;;;;4953817;28;20042;-82
2022/06/03 06:59:53;;;;;;;12.70;5.10;;;13.70;99.90;;;;;;4935854;29;20028;-82
2022/06/03 07:02:36;;;;;;;8.20;5.43;;;13.80;99.90;;;;;;4928304;29;20027;-82
2022/06/03 07:05:17;;;;;;;12.85;6.00;;;13.90;99.90;;;;;;4952503;28;20110;-82
2022/06/03 07:08:25;;;;;;;7.07;5.28;;;14.00;99.90;;;;;;4924880;29;20029;-81
2022/06/03 07:11:11;;;;;;;10.77;5.20;;;14.00;99.90;;;;;;4942960;28;20026;-82
2022/06/03 07:13:59;;;;;;;8.35;5.30;;;14.10;99.90;;;;;;4951860;28;20360;-81
2022/06/03 07:19:54;;;;;;;11.48;6.07;;;14.20;99.90;;;;;;4936038;28;20066;-81
2022/06/03 07:22:38;;;;;;;8.27;5.40;;;14.30;99.90;;;;;;4951417;28;20027;-81
2022/06/03 07:25:24;;;;;;;8.88;5.55;;;14.40;99.90;;;;;;4968566;28;20035;-81
2022/06/03 07:28:06;;;;;;;10.65;5.30;;;14.50;99.90;;;;;;4954215;29;20195;-80
2022/06/03 07:31:02;;;;;;;11.15;5.85;;;14.50;99.90;;;;;;4937233;29;20031;-81
2022/06/03 07:33:31;;;;;;;4.65;3.78;;;14.50;99.90;;;;;;4954251;29;20640;-81
2022/06/03 07:36:10;;;;;;;6.82;4.13;;;14.60;99.90;;;;;;4937003;29;20517;-81
2022/06/03 07:38:52;;;;;;;4.18;3.78;;;14.70;99.90;;;;;;4954257;29;20031;-81
2022/06/03 07:41:42;;;;;;;5.65;3.33;;;14.80;99.90;;;;;;4953691;29;20070;-81
2022/06/03 07:44:15;;;;;;;7.38;2.50;;;15.00;99.90;;;;;;4954063;29;20057;-82
2022/06/03 07:46:53;;;;;;;11.27;3.03;;;15.10;99.90;;;;;;4954069;29;20493;-81
2022/06/03 07:49:21;;;;;;;2.40;2.20;;;15.20;99.90;;;;;;4968798;28;20046;-81
2022/06/03 07:51:52;;;;;;;5.13;2.78;;;15.40;99.90;;;;;;4954207;29;20023;-82
2022/06/03 07:54:27;;;;;;;4.30;2.88;;;15.50;99.90;;;;;;4953771;29;20023;-81
2022/06/03 07:57:04;;;;;;;7.10;2.42;;;15.60;99.90;;;;;;4953881;29;20034;-82
2022/06/03 07:59:33;;;;;;;6.90;3.80;;;15.70;99.90;;;;;;4954057;29;20119;-82
2022/06/03 08:02:02;;;;;;;16.15;4.20;;;15.80;99.90;;;;;;4953929;29;20034;-81
2022/06/03 08:04:31;;;;;;;4.03;2.70;;;15.90;99.90;;;;;;4954163;29;20027;-81
2022/06/03 08:12:31;;;;;;;5.63;2.58;;;16.10;99.90;;;;;;4954153;29;20034;-81
2022/06/03 08:14:57;;;;;;;7.07;2.83;;;16.20;99.90;;;;;;4953656;29;20035;-81
2022/06/03 08:17:26;;;;;;;3.60;2.45;;;16.30;99.90;;;;;;4954118;29;20408;-81
2022/06/03 08:19:54;;;;;;;3.53;2.00;;;16.40;99.90;;;;;;4953809;29;20034;-81
2022/06/03 08:22:23;;;;;;;6.03;2.58;;;16.50;99.90;;;;;;4936829;29;20114;-82
2022/06/03 08:25:00;;;;;;;4.88;2.50;;;16.60;99.90;;;;;;4953477;29;20027;-82
2022/06/03 08:27:30;;;;;;;4.40;2.58;;;16.60;99.90;;;;;;4936818;29;20027;-82
2022/06/03 08:30:00;;;;;;;4.50;2.63;;;16.60;99.90;;;;;;4953703;29;20038;-82
2022/06/03 08:32:32;;;;;;;2.60;2.40;;;16.70;99.90;;;;;;4954298;28;20023;-82
2022/06/03 08:35:00;;;;;;;2.65;2.00;;;16.70;99.90;;;;;;4939996;29;20082;-81
2022/06/03 08:37:31;;;;;;;2.72;1.90;;;16.80;99.90;;;;;;4957440;29;20109;-82
2022/06/03 08:39:59;;;;;;;4.50;2.38;;;16.90;99.90;;;;;;4957012;29;20039;-82
2022/06/03 08:42:38;;;;;;;4.55;2.78;;;17.00;99.90;;;;;;4957354;29;20046;-83
2022/06/03 08:45:15;;;;;;;4.38;2.67;;;17.10;99.90;;;;;;4939857;29;20038;-81
2022/06/03 08:47:54;;;;;;;5.38;3.25;;;17.20;99.90;;;;;;4957151;29;20106;-82
2022/06/03 08:50:47;;;;;;;2.35;2.05;;;17.20;99.90;;;;;;4956950;29;20576;-81
2022/06/03 08:53:36;;;;;;;3.22;1.92;;;17.30;99.90;;;;;;4939775;29;20439;-81
2022/06/03 08:56:14;;;;;;;4.65;2.40;;;17.40;99.90;;;;;;4939362;29;20530;-82
2022/06/03 08:58:57;;;;;;;5.70;2.30;;;17.40;99.90;;;;;;4956883;29;20023;-82
2022/06/03 09:01:25;;;;;;;4.90;2.10;;;17.50;99.90;;;;;;4957018;29;20423;-81
2022/06/03 09:04:12;;;;;;;5.30;2.40;;;17.50;99.90;;;;;;4957085;29;20023;-82
2022/06/03 09:06:59;;;;;;;3.25;1.70;;;17.60;99.90;;;;;;4955640;29;20549;-81
2022/06/03 09:09:45;;;;;;;9.27;3.20;;;17.60;99.90;;;;;;4956433;29;20034;-81
2022/06/03 09:12:28;;;;;;;6.72;2.30;;;17.70;99.90;;;;;;4954461;29;20110;-81
2022/06/03 09:15:03;;;;;;;3.95;2.10;;;17.90;99.90;;;;;;4939781;29;20028;-82
2022/06/03 09:17:35;;;;;;;5.70;2.67;;;18.00;99.90;;;;;;4957144;29;20023;-82
2022/06/03 09:20:13;;;;;;;1.80;1.70;;;18.00;99.90;;;;;;4956663;29;20055;-81
2022/06/03 09:22:39;;;;;;;5.85;2.22;;;18.10;99.90;;;;;;4953715;29;20458;-81
2022/06/03 09:25:10;;;;;;;8.82;3.13;;;18.20;99.90;;;;;;4956374;28;20023;-81
2022/06/03 09:27:36;;;;;;;11.85;3.17;;;18.20;99.90;;;;;;4952287;28;20142;-83
2022/06/03 09:30:05;;;;;;;11.98;3.15;;;18.20;99.90;;;;;;4937997;29;20024;-81
2022/06/03 09:32:45;;;;;;;9.15;2.38;;;18.30;99.90;;;;;;4920819;29;20027;-81
2022/06/03 09:35:16;;;;;;;3.53;2.63;;;18.30;99.90;;;;;;4937005;29;20058;-81
2022/06/03 09:37:47;;;;;;;5.20;2.80;;;18.40;99.90;;;;;;4920132;29;20023;-81
2022/06/03 09:40:24;;;;;;;5.90;2.53;;;18.60;99.90;;;;;;4936776;29;20031;-81
2022/06/03 09:43:06;;;;;;;7.32;2.53;;;18.60;99.90;;;;;;4937047;29;20035;-82
2022/06/03 09:45:33;;;;;;;5.68;2.45;;;18.80;99.90;;;;;;4936055;29;20106;-81
2022/06/03 09:48:03;;;;;;;6.00;2.97;;;18.80;99.90;;;;;;4936813;29;20016;-81
2022/06/03 09:50:28;;;;;;;3.63;2.45;;;18.90;99.90;;;;;;4936752;29;20067;-81
2022/06/03 09:53:05;;;;;;;8.70;3.05;;;19.00;99.90;;;;;;4936837;29;20547;-81
2022/06/03 09:55:40;;;;;;;7.97;2.75;;;19.10;99.90;;;;;;4936506;29;20114;-80
2022/06/03 09:58:17;;;;;;;7.15;2.45;;;19.10;99.90;;;;;;4936758;29;20399;-81
2022/06/03 10:00:53;;;;;;;8.73;2.80;;;19.20;99.90;;;;;;4919722;29;20084;-81
2022/06/03 10:03:19;;;;;;;3.65;2.80;;;19.20;99.90;;;;;;4936371;29;20028;-81
2022/06/03 10:05:51;;;;;;;5.63;2.08;;;19.20;99.90;;;;;;4936593;29;20490;-81
2022/06/03 10:08:20;;;;;;;8.45;2.20;;;19.30;99.90;;;;;;4936424;29;20487;-81
2022/06/03 10:13:32;;;;;;;10.03;1.53;;;19.50;99.90;;;;;;4936482;29;20035;-81
2022/06/03 10:16:00;;;;;;;6.22;2.60;;;19.50;99.90;;;;;;4936353;29;20031;-81
2022/06/03 10:18:56;;;;;;;3.10;2.15;;;19.50;99.90;;;;;;4936424;29;20122;-82
2022/06/03 10:21:21;;;;;;;3.47;2.27;;;19.50;99.90;;;;;;4931689;29;20047;-81
2022/06/03 10:23:52;;;;;;;1.80;1.70;;;19.60;99.90;;;;;;4936270;29;20735;-81
2022/06/03 10:26:28;;;;;;;5.93;2.13;;;19.60;99.90;;;;;;4919719;29;20024;-80
2022/06/03 10:28:56;;;;;;;3.85;2.20;;;19.70;99.90;;;;;;4932111;29;20054;-82
2022/06/03 10:31:30;;;;;;;12.30;2.10;;;19.80;99.90;;;;;;4954654;29;20035;-81
2022/06/03 10:33:58;;;;;;;3.17;1.88;;;19.80;98.90;;;;;;4950760;28;20050;-81
2022/06/03 10:36:34;;;;;;;4.32;1.58;;;19.80;99.90;;;;;;4955595;29;20032;-82
2022/06/03 10:38:59;;;;;;;4.05;2.05;;;19.80;99.90;;;;;;4935086;28;20042;-81
2022/06/03 10:41:38;;;;;;;3.78;1.67;;;19.90;98.80;;;;;;4963091;28;20054;-81
2022/06/03 10:44:15;;;;;;;3.13;1.60;;;19.90;99.90;;;;;;4970191;28;20047;-81
2022/06/03 10:47:04;;;;;;;2.90;1.50;;;19.90;99.90;;;;;;4962173;28;20034;-81
2022/06/03 10:49:32;;;;;;;1.98;1.58;;;19.90;99.30;;;;;;4953044;28;20047;-82
2022/06/03 11:03:29;;;;;;;2.80;1.55;;;20.30;94.30;;;;;;4942454;29;20038;-80
2022/06/03 11:05:55;;;;;;;1.67;1.50;;;20.40;96.00;;;;;;4937831;29;20027;-81
2022/06/03 11:08:22;;;;;;;6.40;1.48;;;20.40;96.70;;;;;;4955043;29;20456;-81
2022/06/03 11:10:52;;;;;;;3.47;1.85;;;20.40;96.00;;;;;;4954495;28;20027;-81
2022/06/03 11:13:39;;;;;;;3.88;1.60;;;20.50;95.30;;;;;;4953969;28;20027;-82
2022/06/03 11:16:21;;;;;;;3.28;1.55;;;20.50;96.20;;;;;;4935840;29;20023;-82
2022/06/03 11:18:47;;;;;;;2.08;1.20;;;20.60;96.80;;;;;;4935915;29;20028;-82
2022/06/03 11:21:42;;;;;;;1.23;1.17;;;20.70;94.60;;;;;;4936150;29;20110;-81
2022/06/03 11:24:08;;;;;;;6.20;1.63;;;20.80;92.30;;;;;;4944491;29;20373;-82
2022/06/03 11:26:42;;;;;;;1.13;1.10;;;20.80;91.30;;;;;;4952877;28;20039;-81
2022/06/03 11:29:15;;;;;;;1.63;1.33;;;20.80;90.30;;;;;;4928078;29;20111;-81
2022/06/03 11:31:46;;;;;;;6.22;1.48;;;20.80;88.40;;;;;;4952807;28;20375;-81
2022/06/03 11:34:22;;;;;;;2.30;1.05;;;20.80;91.30;;;;;;4953938;28;20019;-82
2022/06/03 11:36:58;;;;;;;4.65;1.25;;;20.90;90.90;;;;;;4962768;28;20035;-82
2022/06/03 11:39:29;;;;;;;30.05;5.88;;;21.00;87.70;;;;;;4971199;28;20090;-83
2022/06/03 11:42:09;;;;;;;52.70;9.50;;;21.00;76.20;;;;;;4937473;29;20035;-82
2022/06/03 11:44:40;;;;;;;2.10;1.20;;;21.10;84.50;;;;;;4953657;28;20360;-82
2022/06/03 11:47:21;;;;;;;1.40;1.20;;;21.10;80.30;;;;;;4959775;28;20443;-82
2022/06/03 11:49:47;;;;;;;8.80;1.30;;;21.10;79.10;;;;;;4953264;28;20122;-81
2022/06/03 11:52:13;;;;;;;2.22;1.30;;;21.20;78.20;;;;;;4952610;29;20035;-83
2022/06/03 11:54:40;;;;;;;1.77;1.33;;;21.30;72.30;;;;;;4951756;29;20064;-82
2022/06/03 11:57:07;;;;;;;5.97;1.20;;;21.30;71.30;;;;;;4956950;28;20038;-82
2022/06/03 11:59:50;;;;;;;3.90;1.27;;;21.20;79.30;;;;;;4953254;29;20027;-82
2022/06/03 12:02:32;;;;;;;21.25;2.38;;;21.40;78.80;;;;;;4954256;29;20114;-83
2022/06/03 12:05:21;;;;;;;6.03;1.30;;;21.50;70.20;;;;;;4951706;28;20031;-83
2022/06/03 12:08:13;;;;;;;3.00;1.10;;;21.50;70.50;;;;;;4946154;28;20039;-81
2022/06/03 12:11:01;;;;;;;5.80;1.00;;;21.50;70.90;;;;;;4953349;28;20530;-82
2022/06/03 12:13:31;;;;;;;2.58;1.23;;;21.50;75.00;;;;;;4952346;28;20031;-82
2022/06/03 12:15:56;;;;;;;6.20;1.08;;;21.60;68.70;;;;;;4954787;28;20467;-82
2022/06/03 12:18:31;;;;;;;8.50;1.05;;;21.60;68.70;;;;;;4971312;28;20034;-83
2022/06/03 12:21:00;;;;;;;0.73;0.73;;;21.60;71.10;;;;;;4938894;29;20039;-83
2022/06/03 12:23:25;;;;;;;2.05;0.85;;;21.70;72.00;;;;;;4938300;29;20039;-82
2022/06/03 12:25:52;;;;;;;2.10;0.93;;;21.70;72.40;;;;;;4948286;28;20031;-83
2022/06/03 12:28:23;;;;;;;1.63;1.20;;;21.80;71.40;;;;;;4940200;29;20055;-82
2022/06/03 12:31:19;;;;;;;5.80;1.00;;;21.80;68.10;;;;;;4936522;29;20028;-82
2022/06/03 12:33:58;;;;;;;1.65;1.08;;;21.80;69.40;;;;;;4934505;29;20041;-83
2022/06/03 12:36:39;;;;;;;1.77;1.10;;;21.80;67.90;;;;;;4956492;29;20034;-83
2022/06/03 12:39:08;;;;;;;2.67;1.20;;;21.90;68.70;;;;;;4930608;29;20028;-82
2022/06/03 12:41:46;;;;;;;2.47;0.85;;;21.90;72.70;;;;;;4933605;29;20110;-81
2022/06/03 12:44:51;;;;;;;3.13;0.98;;;22.10;68.00;;;;;;4962140;28;20030;-82
2022/06/03 12:47:32;;;;;;;2.67;1.02;;;22.20;65.80;;;;;;4964627;28;20471;-82
2022/06/03 12:50:23;;;;;;;3.67;0.95;;;22.20;67.60;;;;;;4955740;28;20396;-82
2022/06/03 12:52:51;;;;;;;1.10;1.00;;;22.20;64.60;;;;;;4962024;28;20034;-84
2022/06/03 12:55:52;;;;;;;5.63;1.35;;;22.20;67.00;;;;;;4964028;28;20031;-83
2022/06/03 12:58:59;;;;;;;2.22;1.05;;;22.20;63.80;;;;;;4921292;29;20047;-83
2022/06/03 13:01:45;;;;;;;3.70;1.52;;;22.30;61.30;;;;;;4952401;28;20062;-83
2022/06/03 13:04:26;;;;;;;4.85;1.23;;;22.20;59.70;;;;;;4945916;28;20414;-82
2022/06/03 13:07:11;;;;;;;5.28;1.00;;;22.20;63.60;;;;;;4948246;28;20036;-81
2022/06/03 13:09:56;;;;;;;1.42;0.73;;;22.20;65.10;;;;;;4949621;28;20136;-82
2022/06/03 13:12:31;;;;;;;4.25;1.00;;;22.30;63.40;;;;;;4947561;28;20023;-82
2022/06/03 13:15:16;;;;;;;6.43;1.13;;;22.30;61.40;;;;;;4955556;28;20094;-84
2022/06/03 13:17:59;;;;;;;1.40;0.93;;;22.40;60.70;;;;;;4957006;29;20499;-83
2022/06/03 13:20:42;;;;;;;1.45;1.10;;;22.40;58.70;;;;;;4967516;28;20019;-82
2022/06/03 13:23:22;;;;;;;1.67;1.05;;;22.40;58.40;;;;;;4949716;28;20024;-82
2022/06/03 13:25:51;;;;;;;5.95;1.23;;;22.40;61.20;;;;;;4966589;28;20042;-83
2022/06/03 13:28:33;;;;;;;3.25;1.40;;;22.40;57.30;;;;;;4976274;28;20030;-83
2022/06/03 13:31:19;;;;;;;1.40;1.02;;;22.40;60.70;;;;;;4939129;28;20024;-82
2022/06/03 13:34:10;;;;;;;1.30;1.20;;;22.40;59.40;;;;;;4956428;28;20027;-81
2022/06/03 13:36:37;;;;;;;8.20;1.30;;;22.40;59.20;;;;;;4957517;28;20057;-83
2022/06/03 13:39:05;;;;;;;4.28;1.10;;;22.40;57.70;;;;;;4940334;28;20487;-82
2022/06/03 13:44:40;;;;;;;3.63;1.13;;;22.30;59.10;;;;;;4958184;28;20518;-83
2022/06/03 13:47:19;;;;;;;2.05;1.23;;;22.30;59.20;;;;;;4943179;29;20395;-83
2022/06/03 13:50:03;;;;;;;4.93;0.90;;;22.30;58.80;;;;;;4939088;29;20136;-83
2022/06/03 13:52:34;;;;;;;2.53;1.30;;;22.30;59.90;;;;;;4958361;28;20027;-82
2022/06/03 13:55:44;;;;;;;7.05;1.33;;;22.30;58.80;;;;;;4963239;28;20061;-83
2022/06/03 13:58:32;;;;;;;6.60;1.42;;;22.40;58.90;;;;;;4968637;28;20460;-82
2022/06/03 14:01:26;;;;;;;3.03;1.40;;;22.30;59.60;;;;;;4966083;28;20566;-83
2022/06/03 14:04:13;;;;;;;2.70;1.42;;;22.30;60.90;;;;;;4929323;28;20031;-82
2022/06/03 14:06:52;;;;;;;5.68;1.15;;;22.30;62.80;;;;;;4959634;28;20124;-82
2022/06/03 14:09:45;;;;;;;2.05;1.00;;;22.20;61.10;;;;;;4968586;28;20371;-83
2022/06/03 14:12:20;;;;;;;3.85;1.48;;;22.30;61.40;;;;;;4963251;28;20101;-82
2022/06/03 14:14:46;;;;;;;1.67;1.10;;;22.30;60.70;;;;;;4962414;28;20058;-82
2022/06/03 14:17:12;;;;;;;7.03;1.30;;;22.40;61.20;;;;;;4974906;28;20061;-82
2022/06/03 14:19:55;;;;;;;1.80;1.10;;;22.50;62.60;;;;;;4954887;28;20046;-82
2022/06/03 14:22:39;;;;;;;6.05;1.40;;;22.40;62.90;;;;;;4940186;29;20034;-82
2022/06/03 14:25:34;;;;;;;3.60;1.27;;;22.50;62.20;;;;;;4964493;28;20031;-84
2022/06/03 14:28:13;;;;;;;2.13;1.10;;;22.50;62.30;;;;;;4954544;28;20470;-84
2022/06/03 14:31:22;;;;;;;2.45;1.23;;;22.50;62.90;;;;;;4953053;28;20372;-83
2022/06/03 14:33:53;;;;;;;6.40;1.50;;;22.50;64.90;;;;;;4966120;28;20038;-84
2022/06/03 14:36:19;;;;;;;2.58;1.27;;;22.50;59.20;;;;;;4970175;28;20077;-83
2022/06/03 14:39:11;;;;;;;1.85;1.20;;;22.50;62.10;;;;;;4937830;29;20040;-83
2022/06/03 14:41:40;;;;;;;10.68;1.38;;;22.40;60.00;;;;;;4951853;28;20039;-83
2022/06/03 14:44:12;;;;;;;2.10;1.20;;;22.40;60.20;;;;;;4966932;28;20114;-83
2022/06/03 14:47:07;;;;;;;2.97;1.40;;;22.50;61.80;;;;;;4938877;28;20032;-84
2022/06/03 14:49:39;;;;;;;5.43;1.30;;;22.50;62.30;;;;;;4953204;29;20391;-83
2022/06/03 14:52:15;;;;;;;4.45;1.33;;;22.50;60.80;;;;;;4955109;29;20484;-83
2022/06/03 14:54:50;;;;;;;0.80;0.80;;;22.50;60.90;;;;;;4942927;28;20102;-83
2022/06/03 14:57:22;;;;;;;3.22;1.10;;;22.50;59.50;;;;;;4950510;29;20051;-83
2022/06/03 15:00:20;;;;;;;8.50;1.30;;;22.50;62.50;;;;;;4955356;29;20023;-83
2022/06/03 15:02:56;;;;;;;2.30;1.08;;;22.40;60.40;;;;;;4955207;29;20471;-82
2022/06/03 15:05:29;;;;;;;3.03;1.33;;;22.40;62.80;;;;;;4937454;29;20118;-84